ITY774 LCLK-EDDF
Flight info
| Callsign | ITY774 |
|---|---|
| Flight time | 3h 41m |
| Altitude | 38000 |
| Route | PHA DCT GENOS DCT PEDER M855 TOMBI UA16 AYT UQ23 OSVEL UL619 MAKOL DCT KOMAN/N0486F400 DCT TEGRI DCT ABETI DCT SUBEN DCT AKINI T161 DEBHI DEBHI1C |
| Aircraft | B77L/H-SDE1E2E3FGHIJ2J3J4J5M1RWXY/LB1D1 |
Departure
| Time | 2026-05-01 10:35 |
|---|---|
| Airport | Larnaca International Airport (LCLK) |
Arrival
| Time | 2026-05-01 14:17 |
|---|---|
| Airport | Frankfurt Main Airport (EDDF) |
| Time | Latitude | Longitude | Altitude | Speed | Heading |
|---|---|---|---|---|---|
| 2026-05-01 10:00 | 34.86638 | 33.60844 | 48 ft | 0 kts | 226° |
| 2026-05-01 10:29 | 34.86656 | 33.60867 | 47 ft | 1 kts | 226° |
| 2026-05-01 10:29 | 34.86663 | 33.60876 | 47 ft | 2 kts | 219° |
| 2026-05-01 10:30 | 34.86692 | 33.60887 | 47 ft | 2 kts | 173° |
| 2026-05-01 10:30 | 34.86717 | 33.60874 | 47 ft | 0 kts | 136° |
| 2026-05-01 10:31 | 34.86720 | 33.60870 | 47 ft | 0 kts | 135° |
| 2026-05-01 10:32 | 34.86719 | 33.60871 | 47 ft | 1 kts | 135° |
| 2026-05-01 10:32 | 34.86658 | 33.60950 | 44 ft | 11 kts | 124° |
| 2026-05-01 10:33 | 34.86611 | 33.61109 | 38 ft | 9 kts | 188° |
| 2026-05-01 10:33 | 34.86500 | 33.61061 | 38 ft | 11 kts | 134° |
| 2026-05-01 10:34 | 34.86499 | 33.61160 | 35 ft | 12 kts | 95° |
| 2026-05-01 10:34 | 34.86467 | 33.61261 | 30 ft | 13 kts | 95° |
| 2026-05-01 10:34 | 34.86557 | 33.61394 | 25 ft | 42 kts | 44° |
| 2026-05-01 10:35 | 34.87683 | 33.62770 | 27 ft | 173 kts | 42° |
| 2026-05-01 10:35 | 34.88613 | 33.63763 | 531 ft | 177 kts | 45° |
| 2026-05-01 10:35 | 34.89458 | 33.64852 | 1237 ft | 179 kts | 50° |
| 2026-05-01 10:35 | 34.90315 | 33.65981 | 1679 ft | 188 kts | 48° |
| 2026-05-01 10:36 | 34.91841 | 33.68868 | 2181 ft | 225 kts | 90° |
| 2026-05-01 10:36 | 34.91393 | 33.70664 | 2670 ft | 231 kts | 129° |
| 2026-05-01 10:36 | 34.90071 | 33.71727 | 3228 ft | 235 kts | 169° |
| 2026-05-01 10:37 | 34.88461 | 33.71539 | 3808 ft | 237 kts | 208° |
| 2026-05-01 10:37 | 34.87035 | 33.68198 | 4999 ft | 237 kts | 272° |
| 2026-05-01 10:37 | 34.87109 | 33.66225 | 5679 ft | 237 kts | 274° |
| 2026-05-01 10:38 | 34.87205 | 33.64220 | 6327 ft | 239 kts | 274° |
| 2026-05-01 10:38 | 34.87221 | 33.62206 | 6931 ft | 241 kts | 264° |
| 2026-05-01 10:38 | 34.86965 | 33.60103 | 7285 ft | 257 kts | 260° |
| 2026-05-01 10:38 | 34.86642 | 33.57885 | 7582 ft | 274 kts | 260° |
| 2026-05-01 10:39 | 34.86313 | 33.55583 | 8164 ft | 278 kts | 260° |
| 2026-05-01 10:39 | 34.85988 | 33.53276 | 8877 ft | 278 kts | 261° |
| 2026-05-01 10:39 | 34.85662 | 33.50957 | 9512 ft | 280 kts | 261° |
| 2026-05-01 10:39 | 34.85334 | 33.48627 | 10133 ft | 283 kts | 261° |
| 2026-05-01 10:40 | 34.84994 | 33.46212 | 10446 ft | 298 kts | 261° |
| 2026-05-01 10:40 | 34.84633 | 33.43647 | 10644 ft | 316 kts | 261° |
| 2026-05-01 10:40 | 34.84252 | 33.40951 | 10850 ft | 334 kts | 261° |
| 2026-05-01 10:40 | 34.83846 | 33.38077 | 11074 ft | 352 kts | 261° |
| 2026-05-01 10:41 | 34.83420 | 33.35077 | 11345 ft | 368 kts | 261° |
| 2026-05-01 10:41 | 34.82983 | 33.32001 | 11909 ft | 374 kts | 260° |
| 2026-05-01 10:41 | 34.82103 | 33.25818 | 13431 ft | 374 kts | 260° |
| 2026-05-01 10:42 | 34.81654 | 33.22679 | 14122 ft | 378 kts | 260° |
| 2026-05-01 10:42 | 34.81207 | 33.19552 | 14835 ft | 381 kts | 261° |
| 2026-05-01 10:42 | 34.80753 | 33.16390 | 15574 ft | 384 kts | 261° |
| 2026-05-01 10:42 | 34.80294 | 33.13192 | 16268 ft | 387 kts | 261° |
| 2026-05-01 10:43 | 34.79829 | 33.09958 | 16950 ft | 390 kts | 261° |
| 2026-05-01 10:43 | 34.79361 | 33.06686 | 17661 ft | 393 kts | 261° |
| 2026-05-01 10:43 | 34.78902 | 33.03436 | 18349 ft | 395 kts | 261° |
| 2026-05-01 10:43 | 34.78433 | 33.00120 | 19019 ft | 398 kts | 261° |
| 2026-05-01 10:44 | 34.77964 | 32.96810 | 19685 ft | 401 kts | 261° |
| 2026-05-01 10:44 | 34.77491 | 32.93482 | 20304 ft | 404 kts | 261° |
| 2026-05-01 10:44 | 34.77014 | 32.90131 | 20924 ft | 407 kts | 261° |
| 2026-05-01 10:44 | 34.76525 | 32.86701 | 21550 ft | 410 kts | 262° |
| 2026-05-01 10:45 | 34.76041 | 32.83319 | 22120 ft | 414 kts | 262° |
| 2026-05-01 10:45 | 34.75549 | 32.79880 | 22707 ft | 417 kts | 262° |
| 2026-05-01 10:45 | 34.75046 | 32.76379 | 23309 ft | 419 kts | 262° |
| 2026-05-01 10:45 | 34.74546 | 32.72912 | 23912 ft | 421 kts | 262° |
| 2026-05-01 10:46 | 34.74042 | 32.69420 | 24497 ft | 423 kts | 262° |
| 2026-05-01 10:46 | 34.73513 | 32.65905 | 25024 ft | 426 kts | 262° |
| 2026-05-01 10:46 | 34.72973 | 32.62345 | 25505 ft | 430 kts | 262° |
| 2026-05-01 10:46 | 34.72430 | 32.58778 | 26032 ft | 432 kts | 262° |
| 2026-05-01 10:47 | 34.71885 | 32.55204 | 26589 ft | 433 kts | 262° |
| 2026-05-01 10:47 | 34.71337 | 32.51572 | 27091 ft | 435 kts | 264° |
| 2026-05-01 10:47 | 34.71030 | 32.47940 | 27480 ft | 437 kts | 269° |
| 2026-05-01 10:47 | 34.70835 | 32.44249 | 27927 ft | 439 kts | 269° |
| 2026-05-01 10:48 | 34.70644 | 32.40555 | 28424 ft | 440 kts | 269° |
| 2026-05-01 10:48 | 34.70451 | 32.36857 | 28884 ft | 442 kts | 269° |
| 2026-05-01 10:48 | 34.70255 | 32.33119 | 29293 ft | 445 kts | 269° |
| 2026-05-01 10:48 | 34.70058 | 32.29416 | 29727 ft | 447 kts | 269° |
| 2026-05-01 10:49 | 34.69857 | 32.25655 | 30209 ft | 447 kts | 269° |
| 2026-05-01 10:49 | 34.69650 | 32.21829 | 30799 ft | 445 kts | 269° |
| 2026-05-01 10:49 | 34.69445 | 32.18065 | 31466 ft | 441 kts | 269° |
| 2026-05-01 10:49 | 34.69240 | 32.14327 | 32128 ft | 436 kts | 269° |
| 2026-05-01 10:50 | 34.69037 | 32.10648 | 32733 ft | 433 kts | 270° |
| 2026-05-01 10:50 | 34.68834 | 32.06974 | 33320 ft | 430 kts | 269° |
| 2026-05-01 10:50 | 34.68632 | 32.03331 | 33888 ft | 427 kts | 269° |
| 2026-05-01 10:50 | 34.68433 | 31.99768 | 34333 ft | 425 kts | 270° |
| 2026-05-01 10:51 | 34.68306 | 31.96158 | 34711 ft | 423 kts | 274° |
| 2026-05-01 10:51 | 34.68540 | 31.92616 | 35060 ft | 421 kts | 281° |
| 2026-05-01 10:51 | 34.69148 | 31.89173 | 35435 ft | 418 kts | 287° |
| 2026-05-01 10:51 | 34.70113 | 31.85871 | 35783 ft | 417 kts | 293° |
| 2026-05-01 10:52 | 34.71426 | 31.82728 | 36140 ft | 417 kts | 299° |
| 2026-05-01 10:52 | 34.72917 | 31.79686 | 36488 ft | 418 kts | 300° |
| 2026-05-01 10:52 | 34.74406 | 31.76665 | 36849 ft | 417 kts | 299° |
| 2026-05-01 10:52 | 34.75868 | 31.73687 | 37193 ft | 417 kts | 299° |
| 2026-05-01 10:53 | 34.77357 | 31.70644 | 37537 ft | 416 kts | 299° |
| 2026-05-01 10:53 | 34.78828 | 31.67630 | 37880 ft | 415 kts | 298° |
| 2026-05-01 10:53 | 34.80293 | 31.64622 | 37948 ft | 417 kts | 298° |
| 2026-05-01 10:54 | 34.83224 | 31.58589 | 37944 ft | 414 kts | 298° |
| 2026-05-01 10:54 | 34.86150 | 31.52550 | 37949 ft | 415 kts | 298° |
| 2026-05-01 10:55 | 34.89075 | 31.46498 | 37949 ft | 414 kts | 298° |
| 2026-05-01 10:55 | 34.91984 | 31.40469 | 37936 ft | 414 kts | 298° |
| 2026-05-01 10:56 | 34.94896 | 31.34422 | 37945 ft | 413 kts | 298° |
| 2026-05-01 10:56 | 34.97777 | 31.28429 | 37954 ft | 412 kts | 298° |
| 2026-05-01 10:57 | 35.00681 | 31.22376 | 37955 ft | 411 kts | 298° |
| 2026-05-01 10:57 | 35.03553 | 31.16381 | 37954 ft | 413 kts | 298° |
| 2026-05-01 10:58 | 35.06449 | 31.10324 | 37952 ft | 411 kts | 298° |
| 2026-05-01 10:58 | 35.09314 | 31.04323 | 37955 ft | 411 kts | 298° |
| 2026-05-01 10:59 | 35.12181 | 30.98306 | 37971 ft | 412 kts | 298° |
| 2026-05-01 10:59 | 35.15418 | 30.92519 | 37967 ft | 415 kts | 309° |
| 2026-05-01 11:00 | 35.20055 | 30.88239 | 37960 ft | 429 kts | 327° |
| 2026-05-01 11:00 | 35.25843 | 30.86111 | 37954 ft | 447 kts | 346° |
| 2026-05-01 11:01 | 35.32149 | 30.85859 | 37957 ft | 453 kts | 351° |
| 2026-05-01 11:01 | 35.38462 | 30.85712 | 37953 ft | 454 kts | 351° |
| 2026-05-01 11:02 | 35.44788 | 30.85532 | 37955 ft | 455 kts | 351° |
| 2026-05-01 11:02 | 35.51082 | 30.85338 | 37944 ft | 454 kts | 350° |
| 2026-05-01 11:03 | 35.57426 | 30.85133 | 37941 ft | 455 kts | 350° |
| 2026-05-01 11:03 | 35.63717 | 30.84904 | 37942 ft | 454 kts | 349° |
| 2026-05-01 11:04 | 35.70041 | 30.84515 | 37945 ft | 455 kts | 349° |
| 2026-05-01 11:04 | 35.76373 | 30.84126 | 37932 ft | 453 kts | 349° |
| 2026-05-01 11:05 | 35.82679 | 30.83741 | 37932 ft | 455 kts | 349° |
| 2026-05-01 11:05 | 35.88977 | 30.83359 | 37927 ft | 455 kts | 349° |
| 2026-05-01 11:06 | 35.95338 | 30.82974 | 37926 ft | 454 kts | 349° |
| 2026-05-01 11:06 | 36.01642 | 30.82591 | 37912 ft | 457 kts | 349° |
| 2026-05-01 11:07 | 36.11202 | 30.82182 | 37922 ft | 455 kts | 351° |
| 2026-05-01 11:07 | 36.17545 | 30.81982 | 37939 ft | 459 kts | 351° |
| 2026-05-01 11:08 | 36.23949 | 30.81776 | 37934 ft | 457 kts | 351° |
| 2026-05-01 11:09 | 36.33505 | 30.81460 | 37936 ft | 459 kts | 350° |
| 2026-05-01 11:09 | 36.39895 | 30.81248 | 37929 ft | 460 kts | 350° |
| 2026-05-01 11:10 | 36.49540 | 30.80919 | 37923 ft | 461 kts | 350° |
| 2026-05-01 11:10 | 36.55951 | 30.80699 | 37934 ft | 462 kts | 350° |
| 2026-05-01 11:11 | 36.62372 | 30.80477 | 37932 ft | 461 kts | 350° |
| 2026-05-01 11:11 | 36.68774 | 30.80255 | 37930 ft | 463 kts | 350° |
| 2026-05-01 11:12 | 36.75243 | 30.80033 | 37934 ft | 461 kts | 350° |
| 2026-05-01 11:12 | 36.81676 | 30.79807 | 37940 ft | 465 kts | 350° |
| 2026-05-01 11:13 | 36.88150 | 30.79583 | 37940 ft | 464 kts | 350° |
| 2026-05-01 11:13 | 36.94661 | 30.79794 | 37955 ft | 474 kts | 358° |
| 2026-05-01 11:14 | 37.01278 | 30.80725 | 37928 ft | 475 kts | 358° |
| 2026-05-01 11:14 | 37.07824 | 30.81657 | 37950 ft | 475 kts | 358° |
| 2026-05-01 11:15 | 37.14434 | 30.82593 | 37961 ft | 478 kts | 358° |
| 2026-05-01 11:15 | 37.21009 | 30.83527 | 37966 ft | 475 kts | 358° |
| 2026-05-01 11:16 | 37.27627 | 30.84466 | 37971 ft | 478 kts | 358° |
| 2026-05-01 11:16 | 37.34226 | 30.85404 | 37968 ft | 478 kts | 358° |
| 2026-05-01 11:17 | 37.40884 | 30.86350 | 37975 ft | 482 kts | 359° |
| 2026-05-01 11:17 | 37.47504 | 30.87296 | 37977 ft | 479 kts | 359° |
| 2026-05-01 11:18 | 37.54131 | 30.88243 | 37981 ft | 479 kts | 359° |
| 2026-05-01 11:18 | 37.60766 | 30.89192 | 37994 ft | 479 kts | 359° |
| 2026-05-01 11:19 | 37.67417 | 30.90145 | 38002 ft | 479 kts | 359° |
| 2026-05-01 11:19 | 37.74058 | 30.91097 | 38003 ft | 481 kts | 359° |
| 2026-05-01 11:20 | 37.80683 | 30.92052 | 38005 ft | 480 kts | 359° |
| 2026-05-01 11:20 | 37.87368 | 30.93013 | 38004 ft | 484 kts | 359° |
| 2026-05-01 11:21 | 37.94058 | 30.93979 | 38004 ft | 484 kts | 359° |
| 2026-05-01 11:21 | 38.00742 | 30.94947 | 38006 ft | 484 kts | 359° |
| 2026-05-01 11:22 | 38.07515 | 30.95928 | 38006 ft | 483 kts | 360° |
| 2026-05-01 11:22 | 38.14229 | 30.96902 | 38008 ft | 484 kts | 360° |
| 2026-05-01 11:23 | 38.20884 | 30.97871 | 38009 ft | 484 kts | 360° |
| 2026-05-01 11:23 | 38.27652 | 30.98855 | 38007 ft | 488 kts | 0° |
| 2026-05-01 11:24 | 38.34360 | 30.99835 | 38011 ft | 488 kts | 0° |
| 2026-05-01 11:25 | 38.44474 | 31.01224 | 38007 ft | 484 kts | 355° |
| 2026-05-01 11:25 | 38.51012 | 31.00321 | 38008 ft | 468 kts | 339° |
| 2026-05-01 11:25 | 38.54070 | 30.99054 | 38011 ft | 461 kts | 334° |
| 2026-05-01 11:26 | 38.63093 | 30.94725 | 38008 ft | 463 kts | 333° |
| 2026-05-01 11:27 | 38.69129 | 30.91818 | 37996 ft | 463 kts | 333° |
| 2026-05-01 11:27 | 38.75171 | 30.88904 | 37998 ft | 465 kts | 333° |
| 2026-05-01 11:28 | 38.81198 | 30.85994 | 37995 ft | 464 kts | 333° |
| 2026-05-01 11:28 | 38.87259 | 30.83063 | 38001 ft | 466 kts | 333° |
| 2026-05-01 11:29 | 38.96335 | 30.78663 | 37986 ft | 465 kts | 333° |
| 2026-05-01 11:30 | 39.05477 | 30.74219 | 37983 ft | 466 kts | 334° |
| 2026-05-01 11:30 | 39.11590 | 30.71241 | 37997 ft | 469 kts | 333° |
| 2026-05-01 11:31 | 39.17672 | 30.68272 | 37996 ft | 469 kts | 333° |
| 2026-05-01 11:31 | 39.23787 | 30.65282 | 38004 ft | 470 kts | 334° |
| 2026-05-01 11:32 | 39.29872 | 30.62301 | 37995 ft | 469 kts | 333° |
| 2026-05-01 11:32 | 39.35960 | 30.59314 | 38002 ft | 468 kts | 333° |
| 2026-05-01 11:33 | 39.42071 | 30.56309 | 38007 ft | 470 kts | 333° |
| 2026-05-01 11:33 | 39.48199 | 30.53289 | 38009 ft | 470 kts | 333° |
| 2026-05-01 11:34 | 39.54301 | 30.50277 | 38019 ft | 471 kts | 333° |
| 2026-05-01 11:34 | 39.60283 | 30.46939 | 38030 ft | 469 kts | 330° |
| 2026-05-01 11:35 | 39.66211 | 30.43442 | 38026 ft | 469 kts | 330° |
| 2026-05-01 11:35 | 39.72177 | 30.39938 | 38041 ft | 470 kts | 330° |
| 2026-05-01 11:36 | 39.78104 | 30.36464 | 38043 ft | 467 kts | 330° |
| 2026-05-01 11:36 | 39.84049 | 30.32977 | 38067 ft | 469 kts | 329° |
| 2026-05-01 11:37 | 39.90074 | 30.29440 | 38060 ft | 472 kts | 330° |
| 2026-05-01 11:37 | 39.96037 | 30.25936 | 38064 ft | 471 kts | 329° |
| 2026-05-01 11:38 | 40.02025 | 30.22410 | 38072 ft | 473 kts | 329° |
| 2026-05-01 11:38 | 40.07972 | 30.18904 | 38076 ft | 470 kts | 329° |
| 2026-05-01 11:39 | 40.13918 | 30.15389 | 38082 ft | 471 kts | 329° |
| 2026-05-01 11:39 | 40.19902 | 30.11846 | 38094 ft | 470 kts | 330° |
| 2026-05-01 11:40 | 40.25881 | 30.08300 | 38101 ft | 472 kts | 329° |
| 2026-05-01 11:40 | 40.31869 | 30.04741 | 38117 ft | 473 kts | 330° |
| 2026-05-01 11:41 | 40.37883 | 30.01160 | 38122 ft | 472 kts | 330° |
| 2026-05-01 11:41 | 40.43864 | 29.97591 | 38113 ft | 473 kts | 330° |
| 2026-05-01 11:42 | 40.49845 | 29.94016 | 38122 ft | 474 kts | 330° |
| 2026-05-01 11:42 | 40.55862 | 29.90412 | 38118 ft | 471 kts | 330° |
| 2026-05-01 11:43 | 40.61833 | 29.86828 | 38133 ft | 473 kts | 330° |
| 2026-05-01 11:43 | 40.67820 | 29.83228 | 38134 ft | 472 kts | 330° |
| 2026-05-01 11:44 | 40.76815 | 29.77806 | 38153 ft | 473 kts | 330° |
| 2026-05-01 11:44 | 40.82814 | 29.74179 | 38164 ft | 475 kts | 330° |
| 2026-05-01 11:45 | 40.88791 | 29.70561 | 38160 ft | 473 kts | 330° |
| 2026-05-01 11:45 | 40.94790 | 29.66921 | 38168 ft | 474 kts | 330° |
| 2026-05-01 11:46 | 41.00796 | 29.63268 | 38166 ft | 474 kts | 330° |
| 2026-05-01 11:46 | 41.06782 | 29.59622 | 38169 ft | 474 kts | 330° |
| 2026-05-01 11:47 | 41.12766 | 29.55969 | 38172 ft | 475 kts | 330° |
| 2026-05-01 11:47 | 41.18781 | 29.52298 | 38171 ft | 475 kts | 332° |
| 2026-05-01 11:48 | 41.25128 | 29.49587 | 38183 ft | 483 kts | 339° |
| 2026-05-01 11:48 | 41.31591 | 29.47155 | 38188 ft | 480 kts | 339° |
| 2026-05-01 11:49 | 41.38079 | 29.44699 | 38187 ft | 481 kts | 339° |
| 2026-05-01 11:49 | 41.44463 | 29.42274 | 38192 ft | 479 kts | 339° |
| 2026-05-01 11:50 | 41.50911 | 29.39816 | 38197 ft | 480 kts | 339° |
| 2026-05-01 11:50 | 41.57324 | 29.37365 | 38195 ft | 480 kts | 339° |
| 2026-05-01 11:51 | 41.63782 | 29.34891 | 38187 ft | 481 kts | 339° |
| 2026-05-01 11:51 | 41.70173 | 29.32437 | 38206 ft | 480 kts | 339° |
| 2026-05-01 11:52 | 41.76610 | 29.29960 | 38213 ft | 479 kts | 339° |
| 2026-05-01 11:52 | 41.83047 | 29.27478 | 38206 ft | 481 kts | 339° |
| 2026-05-01 11:53 | 41.89467 | 29.24998 | 38214 ft | 480 kts | 339° |
| 2026-05-01 11:53 | 41.95921 | 29.22499 | 38207 ft | 479 kts | 339° |
| 2026-05-01 11:54 | 42.02287 | 29.20029 | 38217 ft | 479 kts | 339° |
| 2026-05-01 11:54 | 42.08702 | 29.17534 | 38219 ft | 480 kts | 339° |
| 2026-05-01 11:55 | 42.14921 | 29.14472 | 38214 ft | 473 kts | 327° |
| 2026-05-01 11:55 | 42.20151 | 29.09292 | 38218 ft | 465 kts | 311° |
| 2026-05-01 11:56 | 42.24467 | 29.02833 | 38228 ft | 462 kts | 308° |
| 2026-05-01 11:56 | 42.28698 | 28.96320 | 38234 ft | 463 kts | 308° |
| 2026-05-01 11:57 | 42.32189 | 28.90928 | 38232 ft | 461 kts | 308° |
| 2026-05-01 11:57 | 42.37130 | 28.83274 | 38232 ft | 461 kts | 308° |
| 2026-05-01 11:58 | 42.41327 | 28.76753 | 38239 ft | 463 kts | 308° |
| 2026-05-01 11:59 | 42.47653 | 28.66897 | 38239 ft | 463 kts | 308° |
| 2026-05-01 11:59 | 42.51873 | 28.60302 | 38247 ft | 463 kts | 308° |
| 2026-05-01 12:00 | 42.58188 | 28.50405 | 38252 ft | 463 kts | 308° |
| 2026-05-01 12:01 | 42.64504 | 28.40473 | 38255 ft | 466 kts | 308° |
| 2026-05-01 12:01 | 42.68715 | 28.33835 | 38261 ft | 464 kts | 308° |
| 2026-05-01 12:02 | 42.72923 | 28.27182 | 38270 ft | 465 kts | 308° |
| 2026-05-01 12:02 | 42.77152 | 28.20483 | 38273 ft | 464 kts | 308° |
| 2026-05-01 12:03 | 42.81360 | 28.13802 | 38275 ft | 465 kts | 308° |
| 2026-05-01 12:03 | 42.85558 | 28.07122 | 38280 ft | 466 kts | 308° |
| 2026-05-01 12:04 | 42.89752 | 28.00433 | 38278 ft | 466 kts | 308° |
| 2026-05-01 12:04 | 42.93962 | 27.93702 | 38276 ft | 465 kts | 308° |
| 2026-05-01 12:05 | 42.98139 | 27.87009 | 38277 ft | 466 kts | 308° |
| 2026-05-01 12:05 | 43.04419 | 27.76918 | 38277 ft | 466 kts | 308° |
| 2026-05-01 12:06 | 43.08597 | 27.70183 | 38277 ft | 466 kts | 308° |
| 2026-05-01 12:06 | 43.12777 | 27.63432 | 38273 ft | 466 kts | 308° |
| 2026-05-01 12:07 | 43.16954 | 27.56669 | 38273 ft | 467 kts | 308° |
| 2026-05-01 12:07 | 43.21133 | 27.49887 | 38269 ft | 467 kts | 309° |
| 2026-05-01 12:08 | 43.25319 | 27.43078 | 38274 ft | 467 kts | 309° |
| 2026-05-01 12:08 | 43.29489 | 27.36279 | 38270 ft | 468 kts | 309° |
| 2026-05-01 12:09 | 43.33701 | 27.29396 | 38272 ft | 467 kts | 308° |
| 2026-05-01 12:09 | 43.37845 | 27.22607 | 38266 ft | 465 kts | 308° |
| 2026-05-01 12:10 | 43.44115 | 27.12306 | 38266 ft | 466 kts | 308° |
| 2026-05-01 12:11 | 43.50347 | 27.02030 | 38266 ft | 467 kts | 308° |
| 2026-05-01 12:11 | 43.54534 | 26.95106 | 38267 ft | 468 kts | 308° |
| 2026-05-01 12:12 | 43.58691 | 26.88215 | 38265 ft | 467 kts | 308° |
| 2026-05-01 12:12 | 43.62849 | 26.81306 | 38270 ft | 467 kts | 309° |
| 2026-05-01 12:13 | 43.67011 | 26.74375 | 38272 ft | 466 kts | 309° |
| 2026-05-01 12:13 | 43.71140 | 26.67482 | 38272 ft | 466 kts | 309° |
| 2026-05-01 12:14 | 43.75252 | 26.60600 | 38277 ft | 467 kts | 309° |
| 2026-05-01 12:14 | 43.79391 | 26.53656 | 38277 ft | 468 kts | 309° |
| 2026-05-01 12:15 | 43.83494 | 26.46757 | 38282 ft | 467 kts | 309° |
| 2026-05-01 12:15 | 43.87619 | 26.39805 | 38283 ft | 467 kts | 309° |
| 2026-05-01 12:16 | 43.91732 | 26.32854 | 38292 ft | 467 kts | 308° |
| 2026-05-01 12:16 | 43.95860 | 26.25864 | 38293 ft | 467 kts | 308° |
| 2026-05-01 12:17 | 43.99756 | 26.18714 | 38300 ft | 466 kts | 303° |
| 2026-05-01 12:17 | 44.03375 | 26.11283 | 38297 ft | 465 kts | 303° |
| 2026-05-01 12:18 | 44.06982 | 26.03844 | 38296 ft | 466 kts | 303° |
| 2026-05-01 12:18 | 44.10597 | 25.96366 | 38297 ft | 467 kts | 303° |
| 2026-05-01 12:19 | 44.14224 | 25.88842 | 38290 ft | 467 kts | 304° |
| 2026-05-01 12:19 | 44.17810 | 25.81385 | 38281 ft | 467 kts | 304° |
| 2026-05-01 12:20 | 44.21435 | 25.73824 | 38278 ft | 467 kts | 304° |
| 2026-05-01 12:20 | 44.25041 | 25.66287 | 38272 ft | 467 kts | 304° |
| 2026-05-01 12:21 | 44.28630 | 25.58763 | 38274 ft | 467 kts | 304° |
| 2026-05-01 12:21 | 44.32215 | 25.51230 | 38271 ft | 467 kts | 304° |
| 2026-05-01 12:22 | 44.35802 | 25.43671 | 38266 ft | 469 kts | 304° |
| 2026-05-01 12:22 | 44.39399 | 25.36072 | 38272 ft | 468 kts | 304° |
| 2026-05-01 12:23 | 44.42996 | 25.28453 | 38269 ft | 469 kts | 303° |
| 2026-05-01 12:23 | 44.46584 | 25.20833 | 38269 ft | 469 kts | 304° |
| 2026-05-01 12:24 | 44.50180 | 25.13176 | 38267 ft | 469 kts | 304° |
| 2026-05-01 12:24 | 44.53775 | 25.05501 | 38265 ft | 470 kts | 304° |
| 2026-05-01 12:25 | 44.59174 | 24.93933 | 38265 ft | 471 kts | 304° |
| 2026-05-01 12:26 | 44.62761 | 24.86224 | 38258 ft | 471 kts | 304° |
| 2026-05-01 12:26 | 44.68097 | 24.74716 | 38266 ft | 470 kts | 304° |
| 2026-05-01 12:27 | 44.73425 | 24.63179 | 38260 ft | 471 kts | 304° |
| 2026-05-01 12:28 | 44.78738 | 24.51627 | 38256 ft | 472 kts | 304° |
| 2026-05-01 12:29 | 44.84077 | 24.39975 | 38263 ft | 471 kts | 304° |
| 2026-05-01 12:29 | 44.89388 | 24.28334 | 38265 ft | 473 kts | 304° |
| 2026-05-01 12:30 | 44.94699 | 24.16645 | 38255 ft | 473 kts | 304° |
| 2026-05-01 12:31 | 44.98228 | 24.08853 | 38245 ft | 473 kts | 304° |
| 2026-05-01 12:31 | 45.01756 | 24.01041 | 38238 ft | 473 kts | 304° |
| 2026-05-01 12:32 | 45.05277 | 23.93221 | 38225 ft | 472 kts | 304° |
| 2026-05-01 12:32 | 45.10565 | 23.81441 | 38211 ft | 475 kts | 304° |
| 2026-05-01 12:33 | 45.14097 | 23.73543 | 38203 ft | 474 kts | 304° |
| 2026-05-01 12:33 | 45.17582 | 23.65731 | 38191 ft | 473 kts | 304° |
| 2026-05-01 12:34 | 45.21098 | 23.57824 | 38186 ft | 473 kts | 304° |
| 2026-05-01 12:34 | 45.24594 | 23.49943 | 38173 ft | 474 kts | 305° |
| 2026-05-01 12:35 | 45.28070 | 23.42084 | 38182 ft | 472 kts | 305° |
| 2026-05-01 12:35 | 45.31544 | 23.34209 | 38196 ft | 473 kts | 304° |
| 2026-05-01 12:36 | 45.35044 | 23.26254 | 38213 ft | 475 kts | 304° |
| 2026-05-01 12:36 | 45.38513 | 23.18344 | 38216 ft | 474 kts | 304° |
| 2026-05-01 12:37 | 45.42013 | 23.10342 | 38222 ft | 474 kts | 304° |
| 2026-05-01 12:37 | 45.45473 | 23.02410 | 38236 ft | 474 kts | 304° |
| 2026-05-01 12:38 | 45.48939 | 22.94441 | 38250 ft | 475 kts | 304° |
| 2026-05-01 12:38 | 45.52417 | 22.86422 | 38260 ft | 477 kts | 304° |
| 2026-05-01 12:39 | 45.55894 | 22.78383 | 38253 ft | 476 kts | 305° |
| 2026-05-01 12:39 | 45.59347 | 22.70376 | 38246 ft | 477 kts | 305° |
| 2026-05-01 12:40 | 45.62811 | 22.62319 | 38248 ft | 475 kts | 305° |
| 2026-05-01 12:40 | 45.66269 | 22.54257 | 38235 ft | 476 kts | 305° |
| 2026-05-01 12:41 | 45.69711 | 22.46204 | 38228 ft | 477 kts | 305° |
| 2026-05-01 12:41 | 45.73165 | 22.38103 | 38241 ft | 479 kts | 305° |
| 2026-05-01 12:42 | 45.76625 | 22.29964 | 38256 ft | 478 kts | 304° |
| 2026-05-01 12:42 | 45.80058 | 22.21863 | 38271 ft | 479 kts | 304° |
| 2026-05-01 12:43 | 45.83497 | 22.13726 | 38271 ft | 477 kts | 304° |
| 2026-05-01 12:43 | 45.86922 | 22.05599 | 38263 ft | 479 kts | 304° |
| 2026-05-01 12:44 | 45.90364 | 21.97408 | 38256 ft | 480 kts | 305° |
| 2026-05-01 12:45 | 45.97194 | 21.81080 | 38258 ft | 478 kts | 305° |
| 2026-05-01 12:45 | 46.00616 | 21.72864 | 38259 ft | 480 kts | 305° |
| 2026-05-01 12:46 | 46.04042 | 21.64609 | 38269 ft | 478 kts | 305° |
| 2026-05-01 12:46 | 46.07439 | 21.56406 | 38276 ft | 480 kts | 305° |
| 2026-05-01 12:47 | 46.10851 | 21.48141 | 38293 ft | 480 kts | 306° |
| 2026-05-01 12:47 | 46.14226 | 21.39940 | 38295 ft | 478 kts | 306° |
| 2026-05-01 12:48 | 46.17609 | 21.31694 | 38296 ft | 480 kts | 305° |
| 2026-05-01 12:48 | 46.20981 | 21.23452 | 38295 ft | 480 kts | 305° |
| 2026-05-01 12:49 | 46.24364 | 21.15158 | 38309 ft | 479 kts | 305° |
| 2026-05-01 12:49 | 46.27634 | 21.06805 | 38302 ft | 479 kts | 303° |
| 2026-05-01 12:50 | 46.30788 | 20.98338 | 38287 ft | 481 kts | 303° |
| 2026-05-01 12:50 | 46.33936 | 20.89853 | 38316 ft | 481 kts | 303° |
| 2026-05-01 12:51 | 46.37084 | 20.81340 | 38306 ft | 481 kts | 303° |
| 2026-05-01 12:52 | 46.41788 | 20.68569 | 38318 ft | 480 kts | 303° |
| 2026-05-01 12:52 | 46.46488 | 20.55749 | 38323 ft | 482 kts | 303° |
| 2026-05-01 12:53 | 46.51194 | 20.42848 | 38313 ft | 481 kts | 304° |
| 2026-05-01 12:54 | 46.54304 | 20.34289 | 38336 ft | 483 kts | 303° |
| 2026-05-01 12:54 | 46.58961 | 20.21419 | 38316 ft | 481 kts | 303° |
| 2026-05-01 12:55 | 46.63628 | 20.08464 | 38295 ft | 484 kts | 303° |
| 2026-05-01 12:56 | 46.66741 | 19.99785 | 38309 ft | 484 kts | 303° |
| 2026-05-01 12:56 | 46.69826 | 19.91156 | 38310 ft | 484 kts | 303° |
| 2026-05-01 12:57 | 46.72915 | 19.82486 | 38312 ft | 483 kts | 303° |
| 2026-05-01 12:57 | 46.77554 | 19.69417 | 38320 ft | 486 kts | 303° |
| 2026-05-01 12:58 | 46.80648 | 19.60660 | 38341 ft | 485 kts | 304° |
| 2026-05-01 12:59 | 46.85241 | 19.47612 | 38310 ft | 485 kts | 304° |
| 2026-05-01 12:59 | 46.89838 | 19.34487 | 38324 ft | 483 kts | 303° |
| 2026-05-01 13:00 | 46.94440 | 19.21285 | 38314 ft | 485 kts | 303° |
| 2026-05-01 13:01 | 46.99021 | 19.08071 | 38276 ft | 484 kts | 303° |
| 2026-05-01 13:02 | 47.03554 | 18.94934 | 38306 ft | 485 kts | 303° |
| 2026-05-01 13:07 | 47.36454 | 17.97540 | 38345 ft | 483 kts | 303° |
| 2026-05-01 13:08 | 47.39389 | 17.88674 | 38329 ft | 484 kts | 303° |
| 2026-05-01 13:08 | 47.42318 | 17.79789 | 38338 ft | 482 kts | 303° |
| 2026-05-01 13:09 | 47.45252 | 17.70863 | 38371 ft | 483 kts | 303° |
| 2026-05-01 13:09 | 47.48169 | 17.61957 | 38364 ft | 483 kts | 303° |
| 2026-05-01 13:10 | 47.51094 | 17.52992 | 38358 ft | 483 kts | 303° |
| 2026-05-01 13:10 | 47.53998 | 17.44064 | 38328 ft | 482 kts | 303° |
| 2026-05-01 13:11 | 47.56882 | 17.35165 | 38353 ft | 481 kts | 303° |
| 2026-05-01 13:11 | 47.59781 | 17.26190 | 38345 ft | 484 kts | 302° |
| 2026-05-01 13:12 | 47.62668 | 17.17220 | 38329 ft | 483 kts | 302° |
| 2026-05-01 13:12 | 47.65537 | 17.08273 | 38299 ft | 483 kts | 302° |
| 2026-05-01 13:13 | 47.68214 | 16.99066 | 38323 ft | 489 kts | 296° |
| 2026-05-01 13:13 | 47.70392 | 16.89523 | 38320 ft | 488 kts | 295° |
| 2026-05-01 13:14 | 47.72548 | 16.79945 | 38325 ft | 489 kts | 295° |
| 2026-05-01 13:14 | 47.74677 | 16.70413 | 38326 ft | 489 kts | 295° |
| 2026-05-01 13:15 | 47.76797 | 16.60865 | 38324 ft | 488 kts | 295° |
| 2026-05-01 13:15 | 47.78917 | 16.51271 | 38329 ft | 489 kts | 295° |
| 2026-05-01 13:16 | 47.81010 | 16.41748 | 38329 ft | 487 kts | 295° |
| 2026-05-01 13:16 | 47.83101 | 16.32193 | 38324 ft | 488 kts | 294° |
| 2026-05-01 13:17 | 47.87275 | 16.12983 | 38340 ft | 488 kts | 294° |
| 2026-05-01 13:18 | 47.90371 | 15.98614 | 38351 ft | 486 kts | 294° |
| 2026-05-01 13:18 | 47.92424 | 15.89034 | 38343 ft | 487 kts | 294° |
| 2026-05-01 13:19 | 47.94465 | 15.79461 | 38340 ft | 486 kts | 294° |
| 2026-05-01 13:20 | 47.97519 | 15.65053 | 38345 ft | 488 kts | 294° |
| 2026-05-01 13:20 | 47.99538 | 15.55468 | 38338 ft | 486 kts | 293° |
| 2026-05-01 13:21 | 48.02561 | 15.41038 | 38342 ft | 486 kts | 293° |
| 2026-05-01 13:21 | 48.04555 | 15.31464 | 38333 ft | 487 kts | 292° |
| 2026-05-01 13:22 | 48.06545 | 15.21858 | 38339 ft | 487 kts | 292° |
| 2026-05-01 13:22 | 48.08549 | 15.12144 | 38343 ft | 486 kts | 292° |
| 2026-05-01 13:23 | 48.10524 | 15.02520 | 38347 ft | 486 kts | 292° |
| 2026-05-01 13:23 | 48.12495 | 14.92871 | 38338 ft | 485 kts | 292° |
| 2026-05-01 13:24 | 48.14444 | 14.83280 | 38344 ft | 486 kts | 292° |
| 2026-05-01 13:25 | 48.17368 | 14.68809 | 38342 ft | 486 kts | 292° |
| 2026-05-01 13:25 | 48.19314 | 14.59113 | 38341 ft | 485 kts | 292° |
| 2026-05-01 13:26 | 48.21247 | 14.49439 | 38344 ft | 483 kts | 292° |
| 2026-05-01 13:26 | 48.23163 | 14.39806 | 38350 ft | 485 kts | 292° |
| 2026-05-01 13:27 | 48.25087 | 14.30076 | 38353 ft | 486 kts | 291° |
| 2026-05-01 13:27 | 48.27931 | 14.15610 | 38360 ft | 484 kts | 291° |
| 2026-05-01 13:28 | 48.30764 | 14.01090 | 38351 ft | 485 kts | 291° |
| 2026-05-01 13:29 | 48.34509 | 13.81721 | 38329 ft | 484 kts | 290° |
| 2026-05-01 13:31 | 48.40054 | 13.52680 | 38322 ft | 482 kts | 290° |
| 2026-05-01 13:32 | 48.44784 | 13.28543 | 38322 ft | 477 kts | 296° |
| 2026-05-01 13:33 | 48.51024 | 13.05471 | 38311 ft | 477 kts | 296° |
| 2026-05-01 13:34 | 48.55898 | 12.86934 | 38313 ft | 477 kts | 295° |
| 2026-05-01 13:35 | 48.59502 | 12.73064 | 38320 ft | 475 kts | 295° |
| 2026-05-01 13:36 | 48.63113 | 12.59060 | 38319 ft | 475 kts | 295° |
| 2026-05-01 13:36 | 48.66674 | 12.45155 | 38315 ft | 474 kts | 295° |
| 2026-05-01 13:37 | 48.69041 | 12.35867 | 38319 ft | 474 kts | 295° |
| 2026-05-01 13:37 | 48.71386 | 12.26625 | 38314 ft | 475 kts | 294° |
| 2026-05-01 13:38 | 48.74808 | 12.12536 | 38306 ft | 477 kts | 287° |
| 2026-05-01 13:39 | 48.76022 | 12.02663 | 38307 ft | 480 kts | 282° |
| 2026-05-01 13:39 | 48.77100 | 11.92726 | 38304 ft | 479 kts | 282° |
| 2026-05-01 13:40 | 48.78165 | 11.82793 | 38311 ft | 478 kts | 282° |
| 2026-05-01 13:40 | 48.79218 | 11.72886 | 38324 ft | 478 kts | 282° |
| 2026-05-01 13:41 | 48.80266 | 11.62932 | 38331 ft | 478 kts | 282° |
| 2026-05-01 13:41 | 48.81294 | 11.53045 | 38331 ft | 477 kts | 282° |
| 2026-05-01 13:42 | 48.82312 | 11.43154 | 38334 ft | 477 kts | 282° |
| 2026-05-01 13:42 | 48.83324 | 11.33271 | 38327 ft | 476 kts | 283° |
| 2026-05-01 13:43 | 48.85340 | 11.23810 | 38328 ft | 470 kts | 300° |
| 2026-05-01 13:43 | 48.89012 | 11.15736 | 38283 ft | 459 kts | 315° |
| 2026-05-01 13:43 | 48.91249 | 11.12410 | 37603 ft | 455 kts | 320° |
| 2026-05-01 13:44 | 48.93593 | 11.09154 | 36575 ft | 459 kts | 320° |
| 2026-05-01 13:44 | 48.95964 | 11.05867 | 35677 ft | 459 kts | 320° |
| 2026-05-01 13:44 | 48.98322 | 11.02585 | 34802 ft | 460 kts | 320° |
| 2026-05-01 13:44 | 49.00665 | 10.99311 | 33968 ft | 461 kts | 320° |
| 2026-05-01 13:45 | 49.03031 | 10.95998 | 33103 ft | 463 kts | 320° |
| 2026-05-01 13:45 | 49.05401 | 10.92673 | 32195 ft | 466 kts | 320° |
| 2026-05-01 13:45 | 49.07778 | 10.89331 | 31274 ft | 469 kts | 320° |
| 2026-05-01 13:45 | 49.10181 | 10.85942 | 30685 ft | 463 kts | 319° |
| 2026-05-01 13:46 | 49.12498 | 10.82668 | 30211 ft | 457 kts | 320° |
| 2026-05-01 13:46 | 49.14838 | 10.79356 | 29679 ft | 457 kts | 320° |
| 2026-05-01 13:46 | 49.17177 | 10.76045 | 29132 ft | 469 kts | 319° |
| 2026-05-01 13:46 | 49.19589 | 10.72623 | 28553 ft | 468 kts | 319° |
| 2026-05-01 13:47 | 49.21878 | 10.69189 | 28008 ft | 463 kts | 316° |
| 2026-05-01 13:47 | 49.24089 | 10.65681 | 27451 ft | 458 kts | 316° |
| 2026-05-01 13:47 | 49.26305 | 10.62154 | 26882 ft | 453 kts | 316° |
| 2026-05-01 13:47 | 49.28460 | 10.58729 | 26321 ft | 449 kts | 316° |
| 2026-05-01 13:48 | 49.30604 | 10.55324 | 25760 ft | 445 kts | 316° |
| 2026-05-01 13:48 | 49.32737 | 10.51937 | 25194 ft | 443 kts | 316° |
| 2026-05-01 13:48 | 49.34886 | 10.48523 | 24594 ft | 440 kts | 316° |
| 2026-05-01 13:48 | 49.36828 | 10.44949 | 24045 ft | 437 kts | 308° |
| 2026-05-01 13:49 | 49.38566 | 10.41192 | 23728 ft | 434 kts | 307° |
| 2026-05-01 13:49 | 49.40299 | 10.37396 | 23409 ft | 436 kts | 307° |
| 2026-05-01 13:49 | 49.42015 | 10.33633 | 23053 ft | 434 kts | 307° |
| 2026-05-01 13:49 | 49.43759 | 10.29802 | 22685 ft | 432 kts | 307° |
| 2026-05-01 13:50 | 49.45468 | 10.26043 | 22329 ft | 430 kts | 307° |
| 2026-05-01 13:50 | 49.47150 | 10.22339 | 21981 ft | 429 kts | 306° |
| 2026-05-01 13:50 | 49.48870 | 10.18548 | 21626 ft | 428 kts | 306° |
| 2026-05-01 13:50 | 49.50559 | 10.14821 | 21276 ft | 426 kts | 306° |
| 2026-05-01 13:51 | 49.52241 | 10.11104 | 20925 ft | 424 kts | 306° |
| 2026-05-01 13:51 | 49.53917 | 10.07394 | 20576 ft | 423 kts | 306° |
| 2026-05-01 13:51 | 49.55582 | 10.03702 | 20236 ft | 421 kts | 306° |
| 2026-05-01 13:51 | 49.57245 | 10.00012 | 19880 ft | 420 kts | 306° |
| 2026-05-01 13:52 | 49.58900 | 9.96333 | 19524 ft | 418 kts | 306° |
| 2026-05-01 13:52 | 49.60569 | 9.92619 | 19176 ft | 417 kts | 306° |
| 2026-05-01 13:52 | 49.62210 | 9.88960 | 18832 ft | 415 kts | 306° |
| 2026-05-01 13:52 | 49.63839 | 9.85324 | 18488 ft | 414 kts | 306° |
| 2026-05-01 13:53 | 49.65464 | 9.81690 | 18142 ft | 412 kts | 306° |
| 2026-05-01 13:53 | 49.68692 | 9.74460 | 17461 ft | 409 kts | 306° |
| 2026-05-01 13:53 | 49.70300 | 9.70851 | 17123 ft | 408 kts | 306° |
| 2026-05-01 13:54 | 49.71905 | 9.67242 | 16786 ft | 406 kts | 306° |
| 2026-05-01 13:54 | 49.73499 | 9.63655 | 16450 ft | 403 kts | 306° |
| 2026-05-01 13:54 | 49.75080 | 9.60090 | 16118 ft | 401 kts | 306° |
| 2026-05-01 13:54 | 49.76646 | 9.56556 | 15787 ft | 400 kts | 306° |
| 2026-05-01 13:55 | 49.78225 | 9.52987 | 15454 ft | 398 kts | 306° |
| 2026-05-01 13:55 | 49.79768 | 9.49494 | 15131 ft | 397 kts | 306° |
| 2026-05-01 13:55 | 49.81334 | 9.45945 | 14800 ft | 396 kts | 306° |
| 2026-05-01 13:55 | 49.82877 | 9.42443 | 14473 ft | 395 kts | 306° |
| 2026-05-01 13:56 | 49.84414 | 9.38950 | 14151 ft | 392 kts | 306° |
| 2026-05-01 13:56 | 49.85863 | 9.35321 | 13818 ft | 391 kts | 298° |
| 2026-05-01 13:56 | 49.86857 | 9.31417 | 13488 ft | 391 kts | 288° |
| 2026-05-01 13:56 | 49.87647 | 9.27394 | 13168 ft | 389 kts | 286° |
| 2026-05-01 13:57 | 49.88421 | 9.23362 | 12845 ft | 387 kts | 286° |
| 2026-05-01 13:57 | 49.88932 | 9.20691 | 12633 ft | 386 kts | 286° |
| 2026-05-01 13:57 | 49.89936 | 9.15431 | 12212 ft | 384 kts | 286° |
| 2026-05-01 13:57 | 49.90693 | 9.11454 | 11891 ft | 382 kts | 286° |
| 2026-05-01 13:58 | 49.91443 | 9.07505 | 11574 ft | 381 kts | 286° |
| 2026-05-01 13:58 | 49.92183 | 9.03596 | 11261 ft | 380 kts | 286° |
| 2026-05-01 13:58 | 49.92926 | 8.99705 | 11091 ft | 378 kts | 286° |
| 2026-05-01 13:58 | 49.93680 | 8.95759 | 11013 ft | 379 kts | 286° |
| 2026-05-01 13:59 | 49.94423 | 8.91862 | 10909 ft | 378 kts | 286° |
| 2026-05-01 13:59 | 49.95163 | 8.87972 | 10785 ft | 376 kts | 286° |
| 2026-05-01 13:59 | 49.95894 | 8.84122 | 10657 ft | 362 kts | 286° |
| 2026-05-01 13:59 | 49.96591 | 8.80446 | 10548 ft | 349 kts | 286° |
| 2026-05-01 14:00 | 49.97258 | 8.76920 | 10428 ft | 336 kts | 286° |
| 2026-05-01 14:00 | 49.97783 | 8.73451 | 10310 ft | 323 kts | 273° |
| 2026-05-01 14:00 | 49.97594 | 8.70073 | 10206 ft | 309 kts | 256° |
| 2026-05-01 14:00 | 49.97030 | 8.66946 | 10113 ft | 297 kts | 250° |
| 2026-05-01 14:01 | 49.96366 | 8.63936 | 10025 ft | 288 kts | 248° |
| 2026-05-01 14:01 | 49.95685 | 8.61045 | 9934 ft | 287 kts | 248° |
| 2026-05-01 14:01 | 49.94982 | 8.58113 | 9836 ft | 288 kts | 247° |
| 2026-05-01 14:01 | 49.94289 | 8.55236 | 9746 ft | 286 kts | 247° |
| 2026-05-01 14:02 | 49.93588 | 8.52330 | 9642 ft | 285 kts | 247° |
| 2026-05-01 14:02 | 49.92897 | 8.49471 | 9553 ft | 285 kts | 247° |
| 2026-05-01 14:02 | 49.92200 | 8.46587 | 9460 ft | 284 kts | 247° |
| 2026-05-01 14:02 | 49.91508 | 8.43717 | 9361 ft | 282 kts | 248° |
| 2026-05-01 14:03 | 49.90826 | 8.40887 | 9268 ft | 282 kts | 248° |
| 2026-05-01 14:03 | 49.90139 | 8.38046 | 9170 ft | 281 kts | 248° |
| 2026-05-01 14:03 | 49.89447 | 8.35186 | 9078 ft | 281 kts | 248° |
| 2026-05-01 14:03 | 49.88761 | 8.32357 | 8985 ft | 280 kts | 247° |
| 2026-05-01 14:04 | 49.88078 | 8.29541 | 8893 ft | 281 kts | 246° |
| 2026-05-01 14:04 | 49.87389 | 8.26705 | 8798 ft | 279 kts | 246° |
| 2026-05-01 14:04 | 49.86706 | 8.23899 | 8711 ft | 279 kts | 246° |
| 2026-05-01 14:04 | 49.86251 | 8.22028 | 8650 ft | 279 kts | 246° |
| 2026-05-01 14:05 | 49.85339 | 8.18286 | 8526 ft | 278 kts | 246° |
| 2026-05-01 14:05 | 49.84649 | 8.15456 | 8434 ft | 278 kts | 246° |
| 2026-05-01 14:05 | 49.83970 | 8.12672 | 8344 ft | 277 kts | 246° |
| 2026-05-01 14:05 | 49.83290 | 8.09890 | 8255 ft | 276 kts | 246° |
| 2026-05-01 14:06 | 49.82610 | 8.07114 | 8163 ft | 275 kts | 246° |
| 2026-05-01 14:06 | 49.81937 | 8.04368 | 8074 ft | 275 kts | 246° |
| 2026-05-01 14:06 | 49.81254 | 8.01581 | 7983 ft | 274 kts | 246° |
| 2026-05-01 14:06 | 49.80580 | 7.98839 | 7896 ft | 274 kts | 246° |
| 2026-05-01 14:07 | 49.80042 | 7.96034 | 7801 ft | 276 kts | 263° |
| 2026-05-01 14:07 | 49.80285 | 7.93082 | 7704 ft | 280 kts | 290° |
| 2026-05-01 14:07 | 49.81380 | 7.90583 | 7602 ft | 280 kts | 319° |
| 2026-05-01 14:08 | 49.84903 | 7.88137 | 7421 ft | 279 kts | 352° |
| 2026-05-01 14:08 | 49.86804 | 7.88287 | 7315 ft | 273 kts | 20° |
| 2026-05-01 14:08 | 49.88408 | 7.89689 | 7216 ft | 265 kts | 47° |
| 2026-05-01 14:08 | 49.89471 | 7.91923 | 7137 ft | 251 kts | 64° |
| 2026-05-01 14:09 | 49.90212 | 7.94305 | 7058 ft | 241 kts | 70° |
| 2026-05-01 14:09 | 49.90844 | 7.96709 | 6982 ft | 238 kts | 72° |
| 2026-05-01 14:09 | 49.91426 | 7.99099 | 6900 ft | 235 kts | 73° |
| 2026-05-01 14:09 | 49.91972 | 8.01454 | 6695 ft | 234 kts | 73° |
| 2026-05-01 14:10 | 49.92530 | 8.03831 | 6408 ft | 236 kts | 73° |
| 2026-05-01 14:10 | 49.93105 | 8.06227 | 6108 ft | 238 kts | 72° |
| 2026-05-01 14:10 | 49.93699 | 8.08660 | 5800 ft | 241 kts | 72° |
| 2026-05-01 14:10 | 49.94295 | 8.11076 | 5480 ft | 239 kts | 72° |
| 2026-05-01 14:11 | 49.94884 | 8.13451 | 5165 ft | 236 kts | 72° |
| 2026-05-01 14:11 | 49.96038 | 8.18085 | 4576 ft | 225 kts | 72° |
| 2026-05-01 14:11 | 49.96589 | 8.20325 | 4296 ft | 221 kts | 72° |
| 2026-05-01 14:12 | 49.97128 | 8.22528 | 4011 ft | 219 kts | 72° |
| 2026-05-01 14:12 | 49.97664 | 8.24731 | 3723 ft | 217 kts | 72° |
| 2026-05-01 14:12 | 49.98193 | 8.26913 | 3450 ft | 210 kts | 72° |
| 2026-05-01 14:12 | 49.98681 | 8.28915 | 3195 ft | 192 kts | 73° |
| 2026-05-01 14:13 | 49.99139 | 8.30805 | 2945 ft | 180 kts | 73° |
| 2026-05-01 14:13 | 49.99423 | 8.31981 | 2785 ft | 173 kts | 73° |
| 2026-05-01 14:13 | 49.99962 | 8.34210 | 2480 ft | 160 kts | 73° |
| 2026-05-01 14:13 | 50.00340 | 8.35773 | 2269 ft | 150 kts | 73° |
| 2026-05-01 14:14 | 50.00699 | 8.37255 | 2059 ft | 143 kts | 73° |
| 2026-05-01 14:14 | 50.01043 | 8.38677 | 1865 ft | 134 kts | 74° |
| 2026-05-01 14:14 | 50.01359 | 8.39985 | 1675 ft | 127 kts | 74° |
| 2026-05-01 14:14 | 50.01666 | 8.41260 | 1497 ft | 127 kts | 74° |
| 2026-05-01 14:15 | 50.01971 | 8.42529 | 1329 ft | 125 kts | 72° |
| 2026-05-01 14:15 | 50.02283 | 8.43815 | 1156 ft | 128 kts | 74° |
| 2026-05-01 14:15 | 50.02592 | 8.45090 | 959 ft | 126 kts | 72° |
| 2026-05-01 14:15 | 50.02906 | 8.46421 | 798 ft | 131 kts | 72° |
| 2026-05-01 14:16 | 50.03238 | 8.47725 | 620 ft | 129 kts | 73° |
| 2026-05-01 14:16 | 50.03544 | 8.49029 | 449 ft | 130 kts | 70° |
| 2026-05-01 14:16 | 50.03852 | 8.50337 | 341 ft | 126 kts | 71° |
| 2026-05-01 14:16 | 50.04122 | 8.51442 | 346 ft | 87 kts | 69° |
| 2026-05-01 14:17 | 50.04301 | 8.52187 | 350 ft | 60 kts | 70° |
| 2026-05-01 14:17 | 50.04389 | 8.52593 | 355 ft | 21 kts | 80° |
| 2026-05-01 14:17 | 50.04395 | 8.52751 | 357 ft | 8 kts | 94° |
| 2026-05-01 14:17 | 50.04393 | 8.52792 | 357 ft | 4 kts | 94° |
| 2026-05-01 14:18 | 50.04390 | 8.52851 | 358 ft | 6 kts | 95° |
| 2026-05-01 14:18 | 50.04385 | 8.52926 | 359 ft | 8 kts | 97° |
| 2026-05-01 14:18 | 50.04374 | 8.53028 | 359 ft | 11 kts | 99° |
| 2026-05-01 14:18 | 50.04365 | 8.53114 | 360 ft | 12 kts | 99° |
| 2026-05-01 14:19 | 50.04362 | 8.53321 | 361 ft | 15 kts | 76° |
| 2026-05-01 14:19 | 50.04393 | 8.53494 | 362 ft | 17 kts | 81° |
| 2026-05-01 14:19 | 50.04408 | 8.53693 | 362 ft | 19 kts | 84° |
| 2026-05-01 14:19 | 50.04423 | 8.53912 | 363 ft | 21 kts | 84° |
| 2026-05-01 14:20 | 50.04438 | 8.54151 | 361 ft | 23 kts | 83° |
| 2026-05-01 14:20 | 50.04407 | 8.54653 | 361 ft | 22 kts | 123° |
| 2026-05-01 14:20 | 50.04281 | 8.54793 | 361 ft | 22 kts | 160° |
| 2026-05-01 14:21 | 50.04132 | 8.54877 | 360 ft | 23 kts | 159° |
| 2026-05-01 14:21 | 50.04032 | 8.54954 | 359 ft | 11 kts | 133° |
| 2026-05-01 14:21 | 50.04031 | 8.55072 | 359 ft | 12 kts | 69° |
| 2026-05-01 14:22 | 50.04101 | 8.55360 | 361 ft | 16 kts | 70° |
| 2026-05-01 14:22 | 50.04145 | 8.55544 | 362 ft | 19 kts | 66° |
| 2026-05-01 14:22 | 50.04195 | 8.55747 | 363 ft | 21 kts | 70° |
| 2026-05-01 14:22 | 50.04248 | 8.55970 | 364 ft | 22 kts | 69° |
| 2026-05-01 14:23 | 50.04303 | 8.56204 | 365 ft | 23 kts | 70° |
| 2026-05-01 14:23 | 50.04359 | 8.56436 | 367 ft | 22 kts | 69° |
| 2026-05-01 14:23 | 50.04409 | 8.56648 | 368 ft | 13 kts | 70° |
| 2026-05-01 14:23 | 50.04422 | 8.56705 | 368 ft | 0 kts | 70° |
| 2026-05-01 14:24 | 50.04423 | 8.56710 | 368 ft | 1 kts | 70° |
| 2026-05-01 14:24 | 50.04427 | 8.56730 | 369 ft | 2 kts | 70° |
| 2026-05-01 14:24 | 50.04436 | 8.56769 | 369 ft | 4 kts | 70° |
| 2026-05-01 14:24 | 50.04455 | 8.56826 | 369 ft | 6 kts | 54° |
| 2026-05-01 14:25 | 50.04498 | 8.56872 | 370 ft | 8 kts | 13° |
| 2026-05-01 14:25 | 50.04565 | 8.56895 | 370 ft | 10 kts | 12° |
| 2026-05-01 14:25 | 50.04642 | 8.56926 | 371 ft | 9 kts | 7° |
| 2026-05-01 14:25 | 50.04689 | 8.56897 | 371 ft | 7 kts | 300° |
| 2026-05-01 14:26 | 50.04700 | 8.56856 | 371 ft | 0 kts | 294° |